createdAt,value
2023-12-23T00:01:09.298Z,2.50
2023-12-23T00:03:39.311Z,2.63
2023-12-23T00:06:08.235Z,2.88
2023-12-23T00:15:05.407Z,3.63
2023-12-23T00:17:40.270Z,2.92
2023-12-23T00:20:17.302Z,3.03
2023-12-23T00:22:48.162Z,2.30
2023-12-23T00:25:16.871Z,3.73
2023-12-23T00:27:48.389Z,2.30
2023-12-23T00:30:17.430Z,2.50
2023-12-23T00:32:47.918Z,2.33
2023-12-23T00:35:16.435Z,2.20
2023-12-23T00:37:47.191Z,2.47
2023-12-23T00:40:17.087Z,3.70
2023-12-23T00:42:45.674Z,2.75
2023-12-23T00:45:14.394Z,3.50
2023-12-23T00:47:41.485Z,2.30
2023-12-23T00:50:12.817Z,2.20
2023-12-23T00:52:42.924Z,2.43
2023-12-23T00:55:13.277Z,2.40
2023-12-23T00:57:42.054Z,3.47
2023-12-23T01:00:09.779Z,2.77
2023-12-23T01:02:37.342Z,4.67
2023-12-23T01:05:06.037Z,2.13
2023-12-23T01:07:36.907Z,2.37
2023-12-23T01:15:31.806Z,3.43
2023-12-23T01:20:49.432Z,2.60
2023-12-23T01:23:26.480Z,2.10
2023-12-23T01:25:58.383Z,3.33
2023-12-23T01:28:28.465Z,2.17
2023-12-23T01:59:15.412Z,2.60
2023-12-23T04:53:14.872Z,2.47
2023-12-23T04:55:43.850Z,2.00
2023-12-23T04:58:11.990Z,2.47
2023-12-23T05:00:41.162Z,2.40
2023-12-23T05:03:10.442Z,2.00
2023-12-23T05:05:49.502Z,2.63
2023-12-23T05:08:28.278Z,2.33
2023-12-23T05:11:17.762Z,2.50
2023-12-23T05:14:20.865Z,2.43
2023-12-23T05:57:59.723Z,2.60
2023-12-23T06:00:44.028Z,3.33
2023-12-23T06:03:55.954Z,2.20
2023-12-23T06:09:25.247Z,1.97
2023-12-23T06:12:12.796Z,3.57
2023-12-23T06:14:49.964Z,3.97
2023-12-23T06:17:23.467Z,3.13
2023-12-23T06:20:36.376Z,4.60
2023-12-23T06:23:21.646Z,5.93
2023-12-23T07:21:08.650Z,2.73
2023-12-23T07:23:43.434Z,2.10
2023-12-23T07:26:18.387Z,2.20
2023-12-23T07:29:11.003Z,2.17
2023-12-23T07:31:40.870Z,1.90
2023-12-23T07:40:24.129Z,2.43
2023-12-23T07:42:55.768Z,2.77
2023-12-23T07:45:24.912Z,2.60
2023-12-23T07:47:53.300Z,4.17
2023-12-23T07:50:23.418Z,2.77
2023-12-23T07:52:59.900Z,2.45
2023-12-23T07:58:38.529Z,2.40
2023-12-23T08:01:06.941Z,2.50
2023-12-23T08:03:44.153Z,2.30
2023-12-23T08:22:40.551Z,2.37
2023-12-23T08:47:07.564Z,2.77
2023-12-23T08:49:41.438Z,7.27
2023-12-23T08:57:29.085Z,2.57
2023-12-23T08:59:59.556Z,3.20
2023-12-23T09:02:28.950Z,4.65
2023-12-23T09:05:00.470Z,2.60
2023-12-23T09:10:26.643Z,3.50
2023-12-23T09:27:38.931Z,3.30
2023-12-23T09:30:23.136Z,3.37
2023-12-23T10:29:58.238Z,6.27
2023-12-23T11:51:36.553Z,5.80
2023-12-23T12:05:31.900Z,4.73
2023-12-23T14:33:19.612Z,6.37
2023-12-23T15:28:02.772Z,8.60
2023-12-23T15:30:43.699Z,7.37
2023-12-23T15:38:58.335Z,6.00
2023-12-23T16:38:18.907Z,4.17
2023-12-23T16:40:48.709Z,4.73
2023-12-23T16:43:32.114Z,4.88
2023-12-23T16:46:02.557Z,4.67
2023-12-23T16:48:39.329Z,5.68
2023-12-23T16:51:08.950Z,4.87
2023-12-23T16:53:41.713Z,7.20
2023-12-23T16:56:13.748Z,5.13
2023-12-23T16:58:42.682Z,7.07
2023-12-23T17:01:21.658Z,10.50
2023-12-23T17:03:53.209Z,6.43
2023-12-23T17:06:22.677Z,4.97
2023-12-23T17:08:51.587Z,4.20
2023-12-23T17:11:23.300Z,5.10
2023-12-23T17:14:01.390Z,3.83
2023-12-23T17:16:29.218Z,3.53
2023-12-23T17:19:04.669Z,4.20
2023-12-23T17:21:33.734Z,3.43
2023-12-23T17:24:03.253Z,4.50
2023-12-23T17:26:32.762Z,10.37
2023-12-23T17:29:01.481Z,10.90
2023-12-23T17:31:33.236Z,10.87
2023-12-23T17:34:01.410Z,6.73
2023-12-23T17:36:31.565Z,6.10
2023-12-23T17:39:01.745Z,4.88
2023-12-23T17:41:31.720Z,3.50
2023-12-23T17:43:59.693Z,4.15
2023-12-23T17:46:38.034Z,14.57
2023-12-23T17:49:04.968Z,12.93
2023-12-23T17:51:35.376Z,24.30
2023-12-23T17:54:03.270Z,14.40
2023-12-23T17:56:32.663Z,8.77
2023-12-23T17:59:01.754Z,10.93
2023-12-23T18:01:38.087Z,5.17
2023-12-23T18:04:08.487Z,4.90
2023-12-23T18:06:38.900Z,6.40
2023-12-23T18:09:06.982Z,5.75
2023-12-23T18:11:35.693Z,4.83
2023-12-23T18:14:07.159Z,8.40
2023-12-23T18:16:35.831Z,5.10
2023-12-23T18:19:06.508Z,5.10
2023-12-23T18:35:03.365Z,5.30
2023-12-23T18:38:02.918Z,8.03
2023-12-23T18:40:46.384Z,11.40
2023-12-23T19:05:04.084Z,8.87
2023-12-23T19:07:36.739Z,6.60
2023-12-23T19:10:05.551Z,8.23
2023-12-23T19:12:38.950Z,4.43
2023-12-23T19:15:12.282Z,4.73
2023-12-23T19:17:44.515Z,5.17
2023-12-23T19:20:12.098Z,5.17
2023-12-23T19:22:41.325Z,6.73
2023-12-23T19:25:09.615Z,6.83
2023-12-23T19:27:37.517Z,3.93
2023-12-23T19:30:06.546Z,6.07
2023-12-23T19:32:36.598Z,5.97
2023-12-23T19:35:08.524Z,4.53
2023-12-23T19:37:38.582Z,4.93
2023-12-23T19:40:37.752Z,3.83
2023-12-23T19:43:08.306Z,5.80
2023-12-23T19:45:38.171Z,4.95
2023-12-23T19:48:12.501Z,6.57
2023-12-23T19:50:39.448Z,5.17
2023-12-23T19:53:12.291Z,6.70
2023-12-23T19:55:41.025Z,10.83
2023-12-23T19:58:11.585Z,8.23
2023-12-23T20:00:42.276Z,5.83
2023-12-23T20:03:10.866Z,4.10
2023-12-23T20:05:37.933Z,3.73
2023-12-23T20:08:05.318Z,4.70
2023-12-23T20:10:35.946Z,4.20
2023-12-23T20:13:15.179Z,4.27
2023-12-23T20:19:16.891Z,3.83
2023-12-23T20:21:57.027Z,3.73
2023-12-23T20:24:24.656Z,3.45
2023-12-23T20:26:56.906Z,3.00
2023-12-23T20:29:28.004Z,3.47
2023-12-23T20:31:56.274Z,4.83
2023-12-23T20:34:26.559Z,3.77
2023-12-23T20:37:02.829Z,4.15
2023-12-23T20:39:33.089Z,3.30
2023-12-23T20:42:01.711Z,3.72
2023-12-23T20:44:29.152Z,4.53
2023-12-23T20:47:03.589Z,3.87
2023-12-23T20:49:47.496Z,4.13
2023-12-23T20:52:38.997Z,5.47
2023-12-23T20:55:07.771Z,4.20
2023-12-23T20:57:37.874Z,3.63
2023-12-23T21:00:18.410Z,3.97
2023-12-23T21:02:52.562Z,4.57
2023-12-23T21:05:23.876Z,4.30
2023-12-23T21:07:56.030Z,4.30
2023-12-23T21:10:24.987Z,4.27
2023-12-23T21:13:01.044Z,4.40
2023-12-23T21:15:32.435Z,3.50
2023-12-23T21:18:03.071Z,3.57
2023-12-23T21:23:01.890Z,3.40
2023-12-23T21:25:32.943Z,8.23
2023-12-23T21:30:43.233Z,4.77
2023-12-23T21:33:13.612Z,4.47
2023-12-23T21:35:46.980Z,4.15
2023-12-23T21:38:22.386Z,3.30
2023-12-23T21:40:53.530Z,3.50
2023-12-23T21:43:31.664Z,3.20
2023-12-23T21:46:01.767Z,4.50
2023-12-23T21:48:32.074Z,4.53
2023-12-23T21:51:00.059Z,4.53
2023-12-23T21:56:19.599Z,4.70
2023-12-23T21:58:52.531Z,3.73
2023-12-23T22:01:41.400Z,3.67
2023-12-23T22:04:10.741Z,4.07
2023-12-23T22:06:48.382Z,4.00
2023-12-23T22:09:18.956Z,4.07
2023-12-23T22:11:49.124Z,6.25
2023-12-23T22:14:21.545Z,4.28
2023-12-23T22:17:14.015Z,5.40
2023-12-23T22:19:44.013Z,4.43
2023-12-23T22:22:14.297Z,4.37
2023-12-23T22:24:46.391Z,10.77
2023-12-23T22:27:22.697Z,6.50
2023-12-23T22:29:50.234Z,5.80
2023-12-23T22:32:28.538Z,4.67
2023-12-23T22:35:03.893Z,5.83
2023-12-23T22:37:31.597Z,7.33
2023-12-23T22:40:13.516Z,6.50
2023-12-23T22:42:40.700Z,5.10
2023-12-23T22:45:09.981Z,4.63
2023-12-23T22:47:52.035Z,5.10
2023-12-23T23:03:44.116Z,3.67
2023-12-23T23:06:18.135Z,4.18
2023-12-23T23:08:47.952Z,4.67
2023-12-23T23:11:25.630Z,3.90
2023-12-23T23:13:56.231Z,4.57
2023-12-23T23:16:25.018Z,7.45
2023-12-23T23:18:55.202Z,4.20
2023-12-23T23:21:25.878Z,4.38
2023-12-23T23:23:55.387Z,4.10
2023-12-23T23:26:22.673Z,4.13
2023-12-23T23:28:51.808Z,4.43
2023-12-23T23:31:26.268Z,6.57
